Hudson, Kentucky
Current Conditions -  °F | °C
As of 7:58 AM on Monday 26 Jan 2015 (Local Time) from KFTK Reporting Station
Overcast Overcast  
Wind Chill: 15°   Ceiling: 1200
Heat Index: 26°   Visibility: 10mi
Dew Point: 21°   Wind: 13mph
Humidity: 83%   Direction: 300°WNW
Pressure: 29.93"   Gusts: 21mph
Location:  37.65°N, 86.28°W
Report Text: KFTK 261358Z AUTO 30011G18KT 10SM OVC012 M03/M06 A2993 RMK AO2 SLP145 T10351060
Loading
Personal Weather Stations






























Interactive Weather Map New forecast layout! Learn more

10-Day Weather Forecast

Advertisements
Track Severe Weather on mobile